Weather History for KRTS - April, 2013

Change the Weather History Date:

Friday, April 5, 2013

  Actual Average (KRNO) Record (KRNO)
Temperature  
Mean Temperature 47 °F 48 °F  
Max Temperature 59 °F 61 °F 82 °F (1989)
Min Temperature 35 °F 36 °F 17 °F (1955)
Degree Days  
Heating Degree Days 18 16  
Month to date heating degree days 84  
Since 1 July heating degree days 4320  
Cooling Degree Days 0 0  
Month to date cooling degree days 0  
Year to date cooling degree days 0  
Moisture  
Dew Point 26 °F    
Average Humidity 45    
Maximum Humidity 70    
Minimum Humidity 27    
Precipitation  
Precipitation 0.00 in 0.01 in 0.36 in (1943)
Month to date precipitation 0.08  
Year to date precipitation 2.89  
Snow  
Snow 0.00 in 0.00 in 2.50 in (1975)
Month to date snowfall 0.1  
Since 1 July snowfall 21.1  
Snow Depth -    
Sea Level Pressure  
Sea Level Pressure 30.10 in    
Wind  
Wind Speed 10 mph (WSW)    
Max Wind Speed 22 mph    
Max Gust Speed 31 mph    
Visibility 10 miles    
Events      
T = Trace of Precipitation, MM = Missing Value Source: NWS Daily Summary

Daily Weather History Graph

Daily Weather History Graph

Search for Another Location

Airport or City:

Trip Planner

Search our weather history database for the weather conditions in past years. The results will help you decide how hot, cold, wet, or windy it might be!

Date:

Astronomy

Apr. 05, 2013 Rise Set
Actual Time 6:36 AM PDT 7:27 PM PDT
Civil Twilight 6:09 AM PDT 7:55 PM PDT
Nautical Twilight 5:37 AM PDT 8:27 PM PDT
Astronomical Twilight 5:03 AM PDT 9:01 PM PDT
Moon 3:46 AM PDT (4/5) 2:58 PM PDT (4/5)
Length of Visible Light 13h 45m
Length of Day
12h 51m
Waning Crescent, 22% of the Moon is Illuminated
Apr 5
Waning Crescent
Apr 10
New
Apr 18
First Quarter
Apr 25
Full
May 2
Last Quarter

Hourly Weather History & Observations

Time (PDT) Temp. Windchill Dew Point Humidity Pressure Visibility Wind Dir Wind Speed Gust Speed Precip Events Conditions
12:15 AM 44.6 °F 39.2 °F 32.0 °F 61% 30.11 in 10.0 mi SW 10.4 mph 18.4 mph N/A   Overcast
12:35 AM 44.6 °F 42.2 °F 32.0 °F 61% 30.11 in 10.0 mi SW 4.6 mph - N/A   Overcast
12:55 AM 42.8 °F 39.3 °F 32.0 °F 66% 30.11 in 10.0 mi NW 5.8 mph - N/A   Mostly Cloudy
1:15 AM 42.8 °F - 32.0 °F 66% 30.11 in 10.0 mi Calm Calm - N/A   Overcast
1:35 AM 44.6 °F - 30.2 °F 57% 30.12 in 10.0 mi Calm Calm - N/A   Overcast
1:55 AM 42.8 °F 40.1 °F 30.2 °F 61% 30.11 in 10.0 mi WSW 4.6 mph - N/A   Overcast
2:15 AM 44.6 °F - 30.2 °F 57% 30.11 in 10.0 mi North - - N/A   Mostly Cloudy
2:35 AM 42.8 °F 36.2 °F 30.2 °F 61% 30.10 in 10.0 mi SW 12.7 mph - N/A   Partly Cloudy
2:55 AM 42.8 °F 36.6 °F 30.2 °F 61% 30.10 in 10.0 mi WSW 11.5 mph - N/A   Clear
3:15 AM 42.8 °F 37.5 °F 30.2 °F 61% 30.10 in 10.0 mi WSW 9.2 mph - N/A   Clear
3:35 AM 41.0 °F 38.0 °F 30.2 °F 65% 30.10 in 10.0 mi NNW 4.6 mph - N/A   Scattered Clouds
3:55 AM 42.8 °F 39.3 °F 30.2 °F 61% 30.10 in 10.0 mi NNW 5.8 mph - N/A   Overcast
4:15 AM 41.0 °F 34.3 °F 28.4 °F 61% 30.10 in 10.0 mi WSW 11.5 mph - N/A   Partly Cloudy
4:35 AM 41.0 °F 35.2 °F 28.4 °F 61% 30.10 in 10.0 mi West 9.2 mph - N/A   Clear
4:55 AM 41.0 °F 37.1 °F 28.4 °F 61% 30.11 in 10.0 mi NW 5.8 mph - N/A   Partly Cloudy
5:15 AM 39.2 °F 34.2 °F 28.4 °F 65% 30.11 in 10.0 mi NW 6.9 mph - N/A   Scattered Clouds
5:35 AM 39.2 °F 35.0 °F 26.6 °F 61% 30.11 in 10.0 mi West 5.8 mph - N/A   Partly Cloudy
5:55 AM 35.6 °F 32.8 °F 26.6 °F 70% 30.11 in 10.0 mi NNW 3.5 mph - N/A   Clear
6:15 AM 37.4 °F - 26.6 °F 65% 30.12 in 10.0 mi Calm Calm - N/A   Clear
6:35 AM 39.2 °F 37.0 °F 26.6 °F 61% 30.12 in 10.0 mi WNW 3.5 mph - N/A   Clear
6:55 AM 37.4 °F 32.1 °F 26.6 °F 65% 30.12 in 10.0 mi West 6.9 mph - N/A   Clear
7:15 AM 37.4 °F 31.4 °F 28.4 °F 70% 30.11 in 10.0 mi NNW 8.1 mph - N/A   Clear
7:35 AM 39.2 °F 34.2 °F 28.4 °F 65% 30.12 in 10.0 mi WNW 6.9 mph - N/A   Clear
7:55 AM 42.8 °F 38.6 °F 28.4 °F 57% 30.12 in 10.0 mi WSW 6.9 mph - N/A   Clear
8:15 AM 44.6 °F 40.7 °F 28.4 °F 53% 30.12 in 10.0 mi West 6.9 mph - N/A   Clear
8:35 AM 44.6 °F - 28.4 °F 53% 30.13 in 10.0 mi Calm Calm - N/A   Clear
8:55 AM 46.4 °F 42.9 °F 24.8 °F 43% 30.13 in 10.0 mi West 6.9 mph - N/A   Clear
9:15 AM 48.2 °F - 26.6 °F 43% 30.13 in 10.0 mi ENE 6.9 mph - N/A   Clear
9:35 AM 48.2 °F - 23.0 °F 37% 30.13 in 10.0 mi WNW 3.5 mph - N/A   Clear
9:55 AM 50.0 °F - 21.2 °F 32% 30.13 in 10.0 mi Calm Calm - N/A   Clear
10:15 AM 50.0 °F - 23.0 °F 35% 30.13 in 10.0 mi West 11.5 mph 19.6 mph N/A   Clear
10:35 AM 51.8 °F - 24.8 °F 35% 30.13 in 10.0 mi WSW 10.4 mph 16.1 mph N/A   Clear
10:55 AM 51.8 °F - 26.6 °F 38% 30.13 in 10.0 mi WSW 11.5 mph - N/A   Clear
11:15 AM 53.6 °F - 24.8 °F 33% 30.12 in 10.0 mi WSW 12.7 mph 24.2 mph N/A   Clear
11:35 AM 53.6 °F - 24.8 °F 33% 30.11 in 10.0 mi West 6.9 mph 17.3 mph N/A   Clear
11:55 AM 55.4 °F - 24.8 °F 31% 30.11 in 10.0 mi West 10.4 mph - N/A   Clear
12:15 PM 55.4 °F - 24.8 °F 31% 30.10 in 10.0 mi WNW 13.8 mph 18.4 mph N/A   Clear
12:35 PM 57.2 °F - 24.8 °F 29% 30.09 in 10.0 mi WSW 10.4 mph 17.3 mph N/A   Clear
12:55 PM 59.0 °F - 24.8 °F 27% 30.09 in 10.0 mi WSW 8.1 mph 20.7 mph N/A   Clear
1:15 PM 57.2 °F - 24.8 °F 29% 30.08 in 10.0 mi WSW 16.1 mph 25.3 mph N/A   Clear
1:35 PM 57.2 °F - 23.0 °F 27% 30.08 in 10.0 mi SSW 16.1 mph 24.2 mph N/A   Partly Cloudy
1:55 PM 59.0 °F - 24.8 °F 27% 30.08 in 10.0 mi WSW 16.1 mph 23.0 mph N/A   Partly Cloudy
2:15 PM 59.0 °F - 24.8 °F 27% 30.08 in 10.0 mi SW 20.7 mph 27.6 mph N/A   Clear
2:35 PM 59.0 °F - 24.8 °F 27% 30.07 in 10.0 mi SW 21.9 mph 26.5 mph N/A   Clear
2:55 PM 57.2 °F - 24.8 °F 29% 30.07 in 10.0 mi WSW 21.9 mph 31.1 mph N/A   Clear
3:15 PM 55.4 °F - 23.0 °F 29% 30.07 in 10.0 mi SW 21.9 mph 26.5 mph N/A   Clear
3:35 PM 55.4 °F - 23.0 °F 29% 30.08 in 10.0 mi SW 20.7 mph 25.3 mph N/A   Clear
3:55 PM 55.4 °F - 23.0 °F 29% 30.08 in 10.0 mi WSW 17.3 mph 24.2 mph N/A   Clear
4:15 PM 55.4 °F - 24.8 °F 31% 30.08 in 10.0 mi SW 19.6 mph 26.5 mph N/A   Clear
4:35 PM 55.4 °F - 26.6 °F 33% 30.08 in 10.0 mi WSW 16.1 mph 27.6 mph N/A   Clear
4:55 PM 53.6 °F - 26.6 °F 35% 30.08 in 10.0 mi SW 15.0 mph 20.7 mph N/A   Clear
5:15 PM 55.4 °F - 26.6 °F 33% 30.08 in 10.0 mi SW 19.6 mph 29.9 mph N/A   Clear
5:35 PM 53.6 °F - 24.8 °F 33% 30.08 in 10.0 mi WSW 17.3 mph 21.9 mph N/A   Clear
5:55 PM 53.6 °F - 24.8 °F 33% 30.09 in 10.0 mi West 12.7 mph 19.6 mph N/A   Clear
6:15 PM 53.6 °F - 23.0 °F 30% 30.09 in 10.0 mi WSW 18.4 mph - N/A   Clear
6:35 PM 53.6 °F - 21.2 °F 28% 30.08 in 10.0 mi West 17.3 mph - N/A   Partly Cloudy
6:55 PM 51.8 °F - 23.0 °F 33% 30.08 in 10.0 mi WSW 17.3 mph 25.3 mph N/A   Mostly Cloudy
7:15 PM 50.0 °F - 21.2 °F 32% 30.09 in 10.0 mi WSW 16.1 mph 23.0 mph N/A   Scattered Clouds
7:35 PM 50.0 °F - 23.0 °F 35% 30.09 in 10.0 mi WSW 17.3 mph - N/A   Mostly Cloudy
7:55 PM 48.2 °F - 23.0 °F 37% 30.09 in 10.0 mi WSW 13.8 mph - N/A   Overcast
8:15 PM 48.2 °F - 24.8 °F 40% 30.10 in 10.0 mi West 18.4 mph 26.5 mph N/A   Overcast
8:35 PM 46.4 °F 39.8 °F 24.8 °F 43% 30.10 in 10.0 mi West 16.1 mph 21.9 mph N/A   Mostly Cloudy
8:55 PM 46.4 °F 39.2 °F 24.8 °F 43% 30.12 in 10.0 mi WSW 18.4 mph 21.9 mph N/A   Overcast
9:15 PM 46.4 °F 40.1 °F 26.6 °F 46% 30.12 in 10.0 mi West 15.0 mph 23.0 mph N/A   Overcast
9:35 PM 46.4 °F 40.7 °F 26.6 °F 46% 30.13 in 10.0 mi WSW 12.7 mph 16.1 mph N/A   Overcast
9:55 PM 46.4 °F 41.5 °F 26.6 °F 46% 30.12 in 10.0 mi SW 10.4 mph 18.4 mph N/A   Overcast
10:15 PM 46.4 °F 41.9 °F 26.6 °F 46% 30.13 in 10.0 mi SW 9.2 mph 17.3 mph N/A   Overcast
10:35 PM 46.4 °F 42.4 °F 24.8 °F 43% 30.12 in 10.0 mi SW 8.1 mph - N/A   Overcast
10:55 PM 46.4 °F 41.9 °F 23.0 °F 40% 30.12 in 10.0 mi SW 9.2 mph - N/A   Overcast
11:15 PM 46.4 °F 40.4 °F 21.2 °F 37% 30.12 in 10.0 mi WSW 13.8 mph - N/A   Overcast
11:35 PM 46.4 °F 38.7 °F 23.0 °F 40% 30.12 in 10.0 mi WSW 20.7 mph 26.5 mph N/A   Overcast
11:55 PM 46.4 °F 39.8 °F 21.2 °F 37% 30.11 in 10.0 mi WSW 16.1 mph - N/A   Overcast